sensor_id;sensor_type;location;lat;lon;timestamp;P1;durP1;ratioP1;P2;durP2;ratioP2
20251;SDS011;10284;58.364;15.550;2024-01-30T00:01:37;45.03;;;15.90;;
20251;SDS011;10284;58.364;15.550;2024-01-30T00:04:02;39.60;;;15.77;;
20251;SDS011;10284;58.364;15.550;2024-01-30T00:06:28;46.28;;;16.35;;
20251;SDS011;10284;58.364;15.550;2024-01-30T00:08:53;45.10;;;16.67;;
20251;SDS011;10284;58.364;15.550;2024-01-30T00:11:18;43.83;;;16.92;;
20251;SDS011;10284;58.364;15.550;2024-01-30T00:13:44;40.28;;;15.23;;
20251;SDS011;10284;58.364;15.550;2024-01-30T00:16:19;51.75;;;16.30;;
20251;SDS011;10284;58.364;15.550;2024-01-30T00:18:45;48.55;;;16.65;;
20251;SDS011;10284;58.364;15.550;2024-01-30T00:21:10;53.13;;;16.23;;
20251;SDS011;10284;58.364;15.550;2024-01-30T00:23:36;47.40;;;14.93;;
20251;SDS011;10284;58.364;15.550;2024-01-30T00:26:01;50.08;;;16.95;;
20251;SDS011;10284;58.364;15.550;2024-01-30T00:28:27;55.60;;;17.08;;
20251;SDS011;10284;58.364;15.550;2024-01-30T00:30:52;45.33;;;16.00;;
20251;SDS011;10284;58.364;15.550;2024-01-30T00:33:18;43.83;;;15.43;;
20251;SDS011;10284;58.364;15.550;2024-01-30T00:35:43;52.25;;;16.80;;
20251;SDS011;10284;58.364;15.550;2024-01-30T00:38:08;59.83;;;15.75;;
20251;SDS011;10284;58.364;15.550;2024-01-30T00:40:34;52.92;;;16.88;;
20251;SDS011;10284;58.364;15.550;2024-01-30T00:42:59;55.80;;;16.48;;
20251;SDS011;10284;58.364;15.550;2024-01-30T00:45:25;40.70;;;15.70;;
20251;SDS011;10284;58.364;15.550;2024-01-30T00:47:50;47.15;;;16.80;;
20251;SDS011;10284;58.364;15.550;2024-01-30T00:50:16;59.13;;;19.05;;
20251;SDS011;10284;58.364;15.550;2024-01-30T00:52:41;60.72;;;18.80;;
20251;SDS011;10284;58.364;15.550;2024-01-30T00:55:09;56.53;;;19.27;;
20251;SDS011;10284;58.364;15.550;2024-01-30T00:57:36;65.78;;;20.20;;
20251;SDS011;10284;58.364;15.550;2024-01-30T01:00:01;56.10;;;19.52;;
20251;SDS011;10284;58.364;15.550;2024-01-30T01:02:28;63.17;;;18.50;;
20251;SDS011;10284;58.364;15.550;2024-01-30T01:04:53;56.00;;;18.75;;
20251;SDS011;10284;58.364;15.550;2024-01-30T01:07:19;60.85;;;18.33;;
20251;SDS011;10284;58.364;15.550;2024-01-30T01:09:44;60.38;;;18.77;;
20251;SDS011;10284;58.364;15.550;2024-01-30T01:12:09;59.22;;;17.67;;
20251;SDS011;10284;58.364;15.550;2024-01-30T01:14:35;51.45;;;17.92;;
20251;SDS011;10284;58.364;15.550;2024-01-30T01:17:01;55.85;;;18.20;;
20251;SDS011;10284;58.364;15.550;2024-01-30T01:19:26;55.13;;;17.33;;
20251;SDS011;10284;58.364;15.550;2024-01-30T01:21:52;52.38;;;18.30;;
20251;SDS011;10284;58.364;15.550;2024-01-30T01:24:18;52.90;;;16.25;;
20251;SDS011;10284;58.364;15.550;2024-01-30T01:26:43;45.95;;;16.05;;
20251;SDS011;10284;58.364;15.550;2024-01-30T01:29:09;51.53;;;16.25;;
20251;SDS011;10284;58.364;15.550;2024-01-30T01:31:37;46.63;;;16.35;;
20251;SDS011;10284;58.364;15.550;2024-01-30T01:34:09;50.45;;;16.13;;
20251;SDS011;10284;58.364;15.550;2024-01-30T01:36:35;51.78;;;15.23;;
20251;SDS011;10284;58.364;15.550;2024-01-30T01:39:01;51.88;;;15.52;;
20251;SDS011;10284;58.364;15.550;2024-01-30T01:41:30;57.55;;;16.67;;
20251;SDS011;10284;58.364;15.550;2024-01-30T01:43:57;44.97;;;15.48;;
20251;SDS011;10284;58.364;15.550;2024-01-30T01:46:22;52.65;;;16.58;;
20251;SDS011;10284;58.364;15.550;2024-01-30T01:48:48;57.05;;;16.48;;
20251;SDS011;10284;58.364;15.550;2024-01-30T01:51:14;52.28;;;16.35;;
20251;SDS011;10284;58.364;15.550;2024-01-30T01:53:39;54.10;;;17.42;;
20251;SDS011;10284;58.364;15.550;2024-01-30T01:56:05;49.20;;;16.25;;
20251;SDS011;10284;58.364;15.550;2024-01-30T01:58:31;51.97;;;16.58;;
20251;SDS011;10284;58.364;15.550;2024-01-30T02:00:56;62.05;;;16.38;;
20251;SDS011;10284;58.364;15.550;2024-01-30T02:03:23;56.35;;;17.90;;
20251;SDS011;10284;58.364;15.550;2024-01-30T02:05:49;58.05;;;17.60;;
20251;SDS011;10284;58.364;15.550;2024-01-30T02:08:16;57.80;;;16.55;;
20251;SDS011;10284;58.364;15.550;2024-01-30T02:10:41;56.58;;;17.40;;
20251;SDS011;10284;58.364;15.550;2024-01-30T02:13:07;70.53;;;18.30;;
20251;SDS011;10284;58.364;15.550;2024-01-30T02:15:32;58.17;;;17.25;;
20251;SDS011;10284;58.364;15.550;2024-01-30T02:17:57;64.97;;;17.35;;
20251;SDS011;10284;58.364;15.550;2024-01-30T02:20:26;57.42;;;17.90;;
20251;SDS011;10284;58.364;15.550;2024-01-30T02:22:53;67.65;;;17.90;;
20251;SDS011;10284;58.364;15.550;2024-01-30T02:25:19;63.28;;;17.70;;
20251;SDS011;10284;58.364;15.550;2024-01-30T02:27:45;58.97;;;17.27;;
20251;SDS011;10284;58.364;15.550;2024-01-30T02:30:10;58.97;;;17.98;;
20251;SDS011;10284;58.364;15.550;2024-01-30T02:32:36;52.50;;;17.08;;
20251;SDS011;10284;58.364;15.550;2024-01-30T02:35:01;50.20;;;17.15;;
20251;SDS011;10284;58.364;15.550;2024-01-30T02:37:27;58.92;;;17.23;;
20251;SDS011;10284;58.364;15.550;2024-01-30T02:39:52;54.75;;;16.42;;
20251;SDS011;10284;58.364;15.550;2024-01-30T02:42:18;54.13;;;17.30;;
20251;SDS011;10284;58.364;15.550;2024-01-30T02:44:43;60.08;;;17.42;;
20251;SDS011;10284;58.364;15.550;2024-01-30T02:47:08;60.55;;;17.38;;
20251;SDS011;10284;58.364;15.550;2024-01-30T02:49:34;59.88;;;16.98;;
20251;SDS011;10284;58.364;15.550;2024-01-30T02:51:59;57.80;;;17.67;;
20251;SDS011;10284;58.364;15.550;2024-01-30T02:54:25;55.83;;;17.95;;
20251;SDS011;10284;58.364;15.550;2024-01-30T02:56:50;61.90;;;17.05;;
20251;SDS011;10284;58.364;15.550;2024-01-30T02:59:16;57.22;;;16.05;;
20251;SDS011;10284;58.364;15.550;2024-01-30T03:01:44;46.47;;;16.40;;
20251;SDS011;10284;58.364;15.550;2024-01-30T03:04:10;54.08;;;15.75;;
20251;SDS011;10284;58.364;15.550;2024-01-30T03:06:36;52.20;;;15.88;;
20251;SDS011;10284;58.364;15.550;2024-01-30T03:09:01;49.70;;;16.58;;
20251;SDS011;10284;58.364;15.550;2024-01-30T03:11:27;49.45;;;15.40;;
20251;SDS011;10284;58.364;15.550;2024-01-30T03:13:53;52.85;;;15.80;;
20251;SDS011;10284;58.364;15.550;2024-01-30T03:16:18;50.60;;;16.83;;
20251;SDS011;10284;58.364;15.550;2024-01-30T03:18:43;57.75;;;18.85;;
20251;SDS011;10284;58.364;15.550;2024-01-30T03:21:09;46.13;;;18.20;;
20251;SDS011;10284;58.364;15.550;2024-01-30T03:23:34;47.17;;;17.42;;
20251;SDS011;10284;58.364;15.550;2024-01-30T03:25:59;52.00;;;16.58;;
20251;SDS011;10284;58.364;15.550;2024-01-30T03:28:25;53.78;;;17.38;;
20251;SDS011;10284;58.364;15.550;2024-01-30T03:30:50;52.55;;;16.30;;
20251;SDS011;10284;58.364;15.550;2024-01-30T03:33:15;52.58;;;17.17;;
20251;SDS011;10284;58.364;15.550;2024-01-30T03:35:41;53.42;;;17.35;;
20251;SDS011;10284;58.364;15.550;2024-01-30T03:38:06;41.88;;;16.25;;
20251;SDS011;10284;58.364;15.550;2024-01-30T03:40:32;44.80;;;15.10;;
20251;SDS011;10284;58.364;15.550;2024-01-30T03:42:57;44.97;;;16.08;;
20251;SDS011;10284;58.364;15.550;2024-01-30T03:45:24;44.05;;;15.10;;
20251;SDS011;10284;58.364;15.550;2024-01-30T03:47:49;43.13;;;15.57;;
20251;SDS011;10284;58.364;15.550;2024-01-30T03:50:14;50.65;;;15.45;;
20251;SDS011;10284;58.364;15.550;2024-01-30T03:52:40;49.72;;;15.80;;
20251;SDS011;10284;58.364;15.550;2024-01-30T03:55:05;48.30;;;15.77;;
20251;SDS011;10284;58.364;15.550;2024-01-30T03:57:31;51.65;;;16.10;;
20251;SDS011;10284;58.364;15.550;2024-01-30T03:59:56;57.25;;;15.60;;
20251;SDS011;10284;58.364;15.550;2024-01-30T04:02:21;50.60;;;17.00;;
20251;SDS011;10284;58.364;15.550;2024-01-30T04:04:47;43.50;;;15.30;;
20251;SDS011;10284;58.364;15.550;2024-01-30T04:07:12;48.63;;;16.60;;
20251;SDS011;10284;58.364;15.550;2024-01-30T04:09:38;46.60;;;16.40;;
20251;SDS011;10284;58.364;15.550;2024-01-30T04:12:03;53.35;;;17.15;;
20251;SDS011;10284;58.364;15.550;2024-01-30T04:14:29;45.53;;;18.25;;
20251;SDS011;10284;58.364;15.550;2024-01-30T04:16:54;52.85;;;17.38;;
20251;SDS011;10284;58.364;15.550;2024-01-30T04:19:20;54.72;;;16.40;;
20251;SDS011;10284;58.364;15.550;2024-01-30T04:21:45;44.60;;;16.38;;
20251;SDS011;10284;58.364;15.550;2024-01-30T04:24:10;46.60;;;16.35;;
20251;SDS011;10284;58.364;15.550;2024-01-30T04:26:36;36.40;;;14.50;;
20251;SDS011;10284;58.364;15.550;2024-01-30T04:29:01;42.42;;;15.55;;
20251;SDS011;10284;58.364;15.550;2024-01-30T04:31:27;36.28;;;13.88;;
20251;SDS011;10284;58.364;15.550;2024-01-30T04:33:53;40.13;;;15.43;;
20251;SDS011;10284;58.364;15.550;2024-01-30T04:36:18;38.83;;;14.52;;
20251;SDS011;10284;58.364;15.550;2024-01-30T04:38:43;39.42;;;14.15;;
20251;SDS011;10284;58.364;15.550;2024-01-30T04:41:09;43.83;;;14.50;;
20251;SDS011;10284;58.364;15.550;2024-01-30T04:43:34;39.88;;;15.00;;
20251;SDS011;10284;58.364;15.550;2024-01-30T04:46:00;31.45;;;13.05;;
20251;SDS011;10284;58.364;15.550;2024-01-30T04:48:25;33.80;;;14.07;;
20251;SDS011;10284;58.364;15.550;2024-01-30T04:50:50;35.15;;;13.85;;
20251;SDS011;10284;58.364;15.550;2024-01-30T04:53:16;36.08;;;13.85;;
20251;SDS011;10284;58.364;15.550;2024-01-30T04:55:41;37.63;;;13.85;;
20251;SDS011;10284;58.364;15.550;2024-01-30T04:58:06;36.13;;;13.55;;
20251;SDS011;10284;58.364;15.550;2024-01-30T05:00:32;40.08;;;14.10;;
20251;SDS011;10284;58.364;15.550;2024-01-30T05:02:57;41.45;;;14.25;;
20251;SDS011;10284;58.364;15.550;2024-01-30T05:05:22;42.30;;;14.57;;
20251;SDS011;10284;58.364;15.550;2024-01-30T05:07:48;46.28;;;15.02;;
20251;SDS011;10284;58.364;15.550;2024-01-30T05:10:14;45.13;;;15.00;;
20251;SDS011;10284;58.364;15.550;2024-01-30T05:12:39;41.25;;;14.23;;
20251;SDS011;10284;58.364;15.550;2024-01-30T05:15:05;39.08;;;14.10;;
20251;SDS011;10284;58.364;15.550;2024-01-30T05:17:31;44.72;;;14.55;;
20251;SDS011;10284;58.364;15.550;2024-01-30T05:19:56;38.67;;;13.75;;
20251;SDS011;10284;58.364;15.550;2024-01-30T05:22:22;41.42;;;16.00;;
20251;SDS011;10284;58.364;15.550;2024-01-30T05:24:47;32.70;;;13.07;;
20251;SDS011;10284;58.364;15.550;2024-01-30T05:27:13;40.08;;;13.70;;
20251;SDS011;10284;58.364;15.550;2024-01-30T05:29:41;35.53;;;13.75;;
20251;SDS011;10284;58.364;15.550;2024-01-30T05:32:06;42.78;;;15.15;;
20251;SDS011;10284;58.364;15.550;2024-01-30T05:34:32;44.97;;;14.65;;
20251;SDS011;10284;58.364;15.550;2024-01-30T05:36:57;36.58;;;14.38;;
20251;SDS011;10284;58.364;15.550;2024-01-30T05:39:23;34.53;;;13.88;;
20251;SDS011;10284;58.364;15.550;2024-01-30T05:41:48;38.08;;;14.85;;
20251;SDS011;10284;58.364;15.550;2024-01-30T05:44:16;40.47;;;14.38;;
20251;SDS011;10284;58.364;15.550;2024-01-30T05:46:41;44.53;;;15.63;;
20251;SDS011;10284;58.364;15.550;2024-01-30T05:49:07;45.38;;;15.30;;
20251;SDS011;10284;58.364;15.550;2024-01-30T05:51:32;43.85;;;14.95;;
20251;SDS011;10284;58.364;15.550;2024-01-30T05:53:57;36.35;;;14.10;;
20251;SDS011;10284;58.364;15.550;2024-01-30T05:56:23;38.10;;;13.43;;
20251;SDS011;10284;58.364;15.550;2024-01-30T05:58:48;36.25;;;13.55;;
20251;SDS011;10284;58.364;15.550;2024-01-30T06:01:15;45.00;;;16.23;;
20251;SDS011;10284;58.364;15.550;2024-01-30T06:03:40;36.88;;;14.25;;
20251;SDS011;10284;58.364;15.550;2024-01-30T06:06:08;40.25;;;14.43;;
20251;SDS011;10284;58.364;15.550;2024-01-30T06:08:34;36.78;;;15.05;;
20251;SDS011;10284;58.364;15.550;2024-01-30T06:10:59;42.88;;;15.85;;
20251;SDS011;10284;58.364;15.550;2024-01-30T06:13:25;39.15;;;14.38;;
20251;SDS011;10284;58.364;15.550;2024-01-30T06:15:50;42.72;;;15.68;;
20251;SDS011;10284;58.364;15.550;2024-01-30T06:18:16;44.00;;;15.55;;
20251;SDS011;10284;58.364;15.550;2024-01-30T06:20:41;41.13;;;14.63;;
20251;SDS011;10284;58.364;15.550;2024-01-30T06:23:07;47.42;;;14.55;;
20251;SDS011;10284;58.364;15.550;2024-01-30T06:25:32;40.50;;;15.95;;
20251;SDS011;10284;58.364;15.550;2024-01-30T06:27:57;40.38;;;15.35;;
20251;SDS011;10284;58.364;15.550;2024-01-30T06:30:23;40.35;;;15.52;;
20251;SDS011;10284;58.364;15.550;2024-01-30T06:32:48;40.58;;;14.93;;
20251;SDS011;10284;58.364;15.550;2024-01-30T06:35:13;36.03;;;14.32;;
20251;SDS011;10284;58.364;15.550;2024-01-30T06:37:39;38.88;;;14.38;;
20251;SDS011;10284;58.364;15.550;2024-01-30T06:40:04;36.35;;;13.02;;
20251;SDS011;10284;58.364;15.550;2024-01-30T06:42:30;41.60;;;14.95;;
20251;SDS011;10284;58.364;15.550;2024-01-30T06:44:56;34.22;;;13.48;;
20251;SDS011;10284;58.364;15.550;2024-01-30T06:47:21;39.53;;;13.65;;
20251;SDS011;10284;58.364;15.550;2024-01-30T06:49:46;44.47;;;15.60;;
20251;SDS011;10284;58.364;15.550;2024-01-30T06:52:12;34.67;;;13.70;;
20251;SDS011;10284;58.364;15.550;2024-01-30T06:54:37;33.55;;;12.93;;
20251;SDS011;10284;58.364;15.550;2024-01-30T06:57:03;38.50;;;13.40;;
20251;SDS011;10284;58.364;15.550;2024-01-30T06:59:28;37.75;;;14.77;;
20251;SDS011;10284;58.364;15.550;2024-01-30T07:01:54;38.67;;;14.05;;
20251;SDS011;10284;58.364;15.550;2024-01-30T07:04:19;37.22;;;14.15;;
20251;SDS011;10284;58.364;15.550;2024-01-30T07:06:44;35.47;;;12.90;;
20251;SDS011;10284;58.364;15.550;2024-01-30T07:09:10;38.60;;;14.23;;
20251;SDS011;10284;58.364;15.550;2024-01-30T07:11:35;43.45;;;14.15;;
20251;SDS011;10284;58.364;15.550;2024-01-30T07:14:01;36.53;;;14.82;;
20251;SDS011;10284;58.364;15.550;2024-01-30T07:16:28;33.35;;;14.23;;
20251;SDS011;10284;58.364;15.550;2024-01-30T07:18:54;34.42;;;13.57;;
20251;SDS011;10284;58.364;15.550;2024-01-30T07:21:19;36.17;;;13.73;;
20251;SDS011;10284;58.364;15.550;2024-01-30T07:23:46;44.20;;;15.38;;
20251;SDS011;10284;58.364;15.550;2024-01-30T07:26:12;33.92;;;13.35;;
20251;SDS011;10284;58.364;15.550;2024-01-30T07:28:37;39.17;;;14.48;;
20251;SDS011;10284;58.364;15.550;2024-01-30T07:31:03;38.78;;;15.00;;
20251;SDS011;10284;58.364;15.550;2024-01-30T07:33:29;38.20;;;13.75;;
20251;SDS011;10284;58.364;15.550;2024-01-30T07:35:54;44.72;;;15.48;;
20251;SDS011;10284;58.364;15.550;2024-01-30T07:38:19;33.95;;;13.63;;
20251;SDS011;10284;58.364;15.550;2024-01-30T07:40:45;53.63;;;15.85;;
20251;SDS011;10284;58.364;15.550;2024-01-30T07:43:10;42.63;;;14.00;;
20251;SDS011;10284;58.364;15.550;2024-01-30T07:45:36;40.40;;;15.07;;
20251;SDS011;10284;58.364;15.550;2024-01-30T07:48:03;42.83;;;14.70;;
20251;SDS011;10284;58.364;15.550;2024-01-30T07:50:30;47.45;;;14.48;;
20251;SDS011;10284;58.364;15.550;2024-01-30T07:52:55;44.45;;;14.27;;
20251;SDS011;10284;58.364;15.550;2024-01-30T07:55:21;46.42;;;15.48;;
20251;SDS011;10284;58.364;15.550;2024-01-30T07:57:54;42.47;;;15.02;;
20251;SDS011;10284;58.364;15.550;2024-01-30T08:00:22;52.17;;;19.83;;
20251;SDS011;10284;58.364;15.550;2024-01-30T08:02:48;49.60;;;20.75;;
20251;SDS011;10284;58.364;15.550;2024-01-30T08:05:13;43.13;;;16.27;;
20251;SDS011;10284;58.364;15.550;2024-01-30T08:07:40;43.42;;;15.40;;
20251;SDS011;10284;58.364;15.550;2024-01-30T08:10:07;47.00;;;14.68;;
20251;SDS011;10284;58.364;15.550;2024-01-30T08:12:33;47.35;;;15.38;;
20251;SDS011;10284;58.364;15.550;2024-01-30T08:14:58;47.90;;;15.18;;
20251;SDS011;10284;58.364;15.550;2024-01-30T08:17:24;37.42;;;14.65;;
20251;SDS011;10284;58.364;15.550;2024-01-30T08:19:49;39.70;;;14.73;;
20251;SDS011;10284;58.364;15.550;2024-01-30T08:22:14;41.00;;;16.27;;
20251;SDS011;10284;58.364;15.550;2024-01-30T08:24:40;41.55;;;15.48;;
20251;SDS011;10284;58.364;15.550;2024-01-30T08:27:06;43.35;;;14.85;;
20251;SDS011;10284;58.364;15.550;2024-01-30T08:29:34;40.45;;;16.55;;
20251;SDS011;10284;58.364;15.550;2024-01-30T08:32:00;38.28;;;15.10;;
20251;SDS011;10284;58.364;15.550;2024-01-30T08:34:25;35.72;;;13.25;;
20251;SDS011;10284;58.364;15.550;2024-01-30T08:36:50;36.30;;;13.70;;
20251;SDS011;10284;58.364;15.550;2024-01-30T08:39:16;42.95;;;14.88;;
20251;SDS011;10284;58.364;15.550;2024-01-30T08:41:41;32.97;;;12.82;;
20251;SDS011;10284;58.364;15.550;2024-01-30T08:44:06;34.28;;;13.27;;
20251;SDS011;10284;58.364;15.550;2024-01-30T08:46:32;33.65;;;12.82;;
20251;SDS011;10284;58.364;15.550;2024-01-30T08:48:58;35.88;;;12.68;;
20251;SDS011;10284;58.364;15.550;2024-01-30T08:51:24;37.67;;;12.68;;
20251;SDS011;10284;58.364;15.550;2024-01-30T08:53:49;34.65;;;13.02;;
20251;SDS011;10284;58.364;15.550;2024-01-30T08:56:14;32.63;;;13.05;;
20251;SDS011;10284;58.364;15.550;2024-01-30T08:58:41;31.13;;;12.68;;
20251;SDS011;10284;58.364;15.550;2024-01-30T09:01:06;33.92;;;12.43;;
20251;SDS011;10284;58.364;15.550;2024-01-30T09:03:32;34.47;;;12.88;;
20251;SDS011;10284;58.364;15.550;2024-01-30T09:05:57;34.40;;;13.45;;
20251;SDS011;10284;58.364;15.550;2024-01-30T09:08:22;38.35;;;13.60;;
20251;SDS011;10284;58.364;15.550;2024-01-30T09:10:48;34.67;;;12.20;;
20251;SDS011;10284;58.364;15.550;2024-01-30T09:13:15;31.55;;;13.60;;
20251;SDS011;10284;58.364;15.550;2024-01-30T09:15:41;36.97;;;12.65;;
20251;SDS011;10284;58.364;15.550;2024-01-30T09:18:07;31.27;;;13.43;;
20251;SDS011;10284;58.364;15.550;2024-01-30T09:20:32;38.53;;;13.75;;
20251;SDS011;10284;58.364;15.550;2024-01-30T09:22:58;35.53;;;13.38;;
20251;SDS011;10284;58.364;15.550;2024-01-30T09:25:23;31.25;;;12.90;;
20251;SDS011;10284;58.364;15.550;2024-01-30T09:27:48;38.20;;;13.88;;
20251;SDS011;10284;58.364;15.550;2024-01-30T09:30:14;35.95;;;13.93;;
20251;SDS011;10284;58.364;15.550;2024-01-30T09:32:39;33.55;;;14.20;;
20251;SDS011;10284;58.364;15.550;2024-01-30T09:35:05;37.70;;;14.45;;
20251;SDS011;10284;58.364;15.550;2024-01-30T09:37:31;27.67;;;13.07;;
20251;SDS011;10284;58.364;15.550;2024-01-30T09:39:56;34.13;;;13.70;;
20251;SDS011;10284;58.364;15.550;2024-01-30T09:44:59;29.52;;;12.68;;
20251;SDS011;10284;58.364;15.550;2024-01-30T09:47:24;31.17;;;14.15;;
20251;SDS011;10284;58.364;15.550;2024-01-30T09:49:51;37.42;;;13.93;;
20251;SDS011;10284;58.364;15.550;2024-01-30T09:52:16;35.80;;;13.73;;
20251;SDS011;10284;58.364;15.550;2024-01-30T09:54:43;33.58;;;13.05;;
20251;SDS011;10284;58.364;15.550;2024-01-30T09:57:11;32.88;;;13.13;;
20251;SDS011;10284;58.364;15.550;2024-01-30T09:59:36;29.48;;;13.73;;
20251;SDS011;10284;58.364;15.550;2024-01-30T10:02:02;31.88;;;14.18;;
20251;SDS011;10284;58.364;15.550;2024-01-30T10:04:29;28.63;;;13.27;;
20251;SDS011;10284;58.364;15.550;2024-01-30T10:06:54;28.17;;;13.65;;
20251;SDS011;10284;58.364;15.550;2024-01-30T10:09:20;33.05;;;13.77;;
20251;SDS011;10284;58.364;15.550;2024-01-30T10:11:46;26.95;;;12.88;;
20251;SDS011;10284;58.364;15.550;2024-01-30T10:14:12;39.67;;;14.02;;
20251;SDS011;10284;58.364;15.550;2024-01-30T10:16:37;30.15;;;13.77;;
20251;SDS011;10284;58.364;15.550;2024-01-30T10:19:03;32.67;;;13.48;;
20251;SDS011;10284;58.364;15.550;2024-01-30T10:21:29;27.48;;;13.10;;
20251;SDS011;10284;58.364;15.550;2024-01-30T10:23:55;27.48;;;13.18;;
20251;SDS011;10284;58.364;15.550;2024-01-30T10:26:20;36.78;;;13.55;;
20251;SDS011;10284;58.364;15.550;2024-01-30T10:28:46;35.28;;;13.50;;
20251;SDS011;10284;58.364;15.550;2024-01-30T10:31:15;31.58;;;13.68;;
20251;SDS011;10284;58.364;15.550;2024-01-30T10:33:41;36.47;;;13.65;;
20251;SDS011;10284;58.364;15.550;2024-01-30T10:36:07;30.23;;;12.98;;
20251;SDS011;10284;58.364;15.550;2024-01-30T10:38:33;28.02;;;13.02;;
20251;SDS011;10284;58.364;15.550;2024-01-30T10:41:01;33.55;;;14.25;;
20251;SDS011;10284;58.364;15.550;2024-01-30T10:43:31;33.67;;;14.27;;
20251;SDS011;10284;58.364;15.550;2024-01-30T10:46:00;31.35;;;13.52;;
20251;SDS011;10284;58.364;15.550;2024-01-30T10:48:32;27.98;;;13.05;;
20251;SDS011;10284;58.364;15.550;2024-01-30T10:50:57;27.95;;;12.95;;
20251;SDS011;10284;58.364;15.550;2024-01-30T10:53:24;28.33;;;13.43;;
20251;SDS011;10284;58.364;15.550;2024-01-30T10:55:51;34.17;;;13.45;;
20251;SDS011;10284;58.364;15.550;2024-01-30T10:58:17;35.50;;;14.27;;
20251;SDS011;10284;58.364;15.550;2024-01-30T11:00:42;33.85;;;14.00;;
20251;SDS011;10284;58.364;15.550;2024-01-30T11:03:08;33.03;;;13.73;;
20251;SDS011;10284;58.364;15.550;2024-01-30T11:05:34;29.15;;;14.02;;
20251;SDS011;10284;58.364;15.550;2024-01-30T11:08:10;24.17;;;12.27;;
20251;SDS011;10284;58.364;15.550;2024-01-30T11:10:44;26.05;;;12.43;;
20251;SDS011;10284;58.364;15.550;2024-01-30T11:13:12;24.17;;;11.75;;
20251;SDS011;10284;58.364;15.550;2024-01-30T11:15:38;30.15;;;12.23;;
20251;SDS011;10284;58.364;15.550;2024-01-30T11:18:04;30.23;;;13.23;;
20251;SDS011;10284;58.364;15.550;2024-01-30T11:20:30;27.80;;;12.90;;
20251;SDS011;10284;58.364;15.550;2024-01-30T11:23:00;31.33;;;12.68;;
20251;SDS011;10284;58.364;15.550;2024-01-30T11:25:30;26.77;;;12.95;;
20251;SDS011;10284;58.364;15.550;2024-01-30T11:27:56;25.35;;;12.43;;
20251;SDS011;10284;58.364;15.550;2024-01-30T11:30:25;26.42;;;13.00;;
20251;SDS011;10284;58.364;15.550;2024-01-30T11:33:01;29.52;;;12.80;;
20251;SDS011;10284;58.364;15.550;2024-01-30T11:35:29;23.70;;;12.32;;
20251;SDS011;10284;58.364;15.550;2024-01-30T11:37:57;27.30;;;12.23;;
20251;SDS011;10284;58.364;15.550;2024-01-30T11:40:22;25.48;;;12.13;;
20251;SDS011;10284;58.364;15.550;2024-01-30T11:42:51;27.70;;;11.90;;
20251;SDS011;10284;58.364;15.550;2024-01-30T11:45:17;26.85;;;12.55;;
20251;SDS011;10284;58.364;15.550;2024-01-30T11:47:42;23.25;;;11.85;;
20251;SDS011;10284;58.364;15.550;2024-01-30T11:50:08;20.75;;;11.73;;
20251;SDS011;10284;58.364;15.550;2024-01-30T11:52:35;31.30;;;13.60;;
20251;SDS011;10284;58.364;15.550;2024-01-30T11:55:01;24.10;;;11.75;;
20251;SDS011;10284;58.364;15.550;2024-01-30T11:57:27;22.52;;;11.70;;
20251;SDS011;10284;58.364;15.550;2024-01-30T11:59:53;25.73;;;12.52;;
20251;SDS011;10284;58.364;15.550;2024-01-30T12:02:18;27.15;;;12.07;;
20251;SDS011;10284;58.364;15.550;2024-01-30T12:04:44;23.50;;;11.90;;
20251;SDS011;10284;58.364;15.550;2024-01-30T12:07:09;23.67;;;11.75;;
20251;SDS011;10284;58.364;15.550;2024-01-30T12:09:35;22.90;;;12.05;;
20251;SDS011;10284;58.364;15.550;2024-01-30T12:12:01;29.15;;;12.52;;
20251;SDS011;10284;58.364;15.550;2024-01-30T12:14:26;27.08;;;12.18;;
20251;SDS011;10284;58.364;15.550;2024-01-30T12:16:51;27.73;;;11.68;;
20251;SDS011;10284;58.364;15.550;2024-01-30T12:19:26;20.63;;;10.65;;
20251;SDS011;10284;58.364;15.550;2024-01-30T12:21:57;24.53;;;11.73;;
20251;SDS011;10284;58.364;15.550;2024-01-30T12:24:27;25.15;;;11.57;;
20251;SDS011;10284;58.364;15.550;2024-01-30T12:26:56;20.83;;;11.02;;
20251;SDS011;10284;58.364;15.550;2024-01-30T12:29:22;21.13;;;11.18;;
20251;SDS011;10284;58.364;15.550;2024-01-30T12:31:47;23.70;;;11.30;;
20251;SDS011;10284;58.364;15.550;2024-01-30T12:34:16;22.98;;;11.95;;
20251;SDS011;10284;58.364;15.550;2024-01-30T12:36:42;23.70;;;11.35;;
20251;SDS011;10284;58.364;15.550;2024-01-30T12:39:10;23.75;;;11.32;;
20251;SDS011;10284;58.364;15.550;2024-01-30T12:41:38;26.65;;;11.70;;
20251;SDS011;10284;58.364;15.550;2024-01-30T12:44:03;97.57;;;41.97;;
20251;SDS011;10284;58.364;15.550;2024-01-30T12:46:28;31.70;;;14.40;;
20251;SDS011;10284;58.364;15.550;2024-01-30T12:48:54;57.28;;;32.30;;
20251;SDS011;10284;58.364;15.550;2024-01-30T12:51:19;32.03;;;18.00;;
20251;SDS011;10284;58.364;15.550;2024-01-30T12:53:45;56.13;;;32.15;;
20251;SDS011;10284;58.364;15.550;2024-01-30T12:56:12;66.97;;;43.05;;
20251;SDS011;10284;58.364;15.550;2024-01-30T12:58:38;35.67;;;24.38;;
20251;SDS011;10284;58.364;15.550;2024-01-30T13:01:03;24.92;;;11.80;;
20251;SDS011;10284;58.364;15.550;2024-01-30T13:03:29;22.30;;;12.02;;
20251;SDS011;10284;58.364;15.550;2024-01-30T13:05:54;24.83;;;13.63;;
20251;SDS011;10284;58.364;15.550;2024-01-30T13:08:20;23.58;;;11.35;;
20251;SDS011;10284;58.364;15.550;2024-01-30T13:10:46;21.27;;;10.77;;
20251;SDS011;10284;58.364;15.550;2024-01-30T13:13:11;23.35;;;11.05;;
20251;SDS011;10284;58.364;15.550;2024-01-30T13:15:37;21.23;;;10.55;;
20251;SDS011;10284;58.364;15.550;2024-01-30T13:18:03;20.90;;;10.65;;
20251;SDS011;10284;58.364;15.550;2024-01-30T13:20:30;25.25;;;11.50;;
20251;SDS011;10284;58.364;15.550;2024-01-30T13:22:55;20.38;;;10.68;;
20251;SDS011;10284;58.364;15.550;2024-01-30T13:25:21;18.42;;;10.43;;
20251;SDS011;10284;58.364;15.550;2024-01-30T13:27:46;21.02;;;11.00;;
20251;SDS011;10284;58.364;15.550;2024-01-30T13:30:11;19.42;;;10.65;;
20251;SDS011;10284;58.364;15.550;2024-01-30T13:32:37;20.27;;;10.55;;
20251;SDS011;10284;58.364;15.550;2024-01-30T13:35:02;19.83;;;11.80;;
20251;SDS011;10284;58.364;15.550;2024-01-30T13:37:28;20.63;;;11.15;;
20251;SDS011;10284;58.364;15.550;2024-01-30T13:39:54;25.15;;;11.23;;
20251;SDS011;10284;58.364;15.550;2024-01-30T13:42:19;21.17;;;10.82;;
20251;SDS011;10284;58.364;15.550;2024-01-30T13:44:45;19.92;;;11.20;;
20251;SDS011;10284;58.364;15.550;2024-01-30T13:47:10;20.17;;;11.10;;
20251;SDS011;10284;58.364;15.550;2024-01-30T13:49:36;24.13;;;11.60;;
20251;SDS011;10284;58.364;15.550;2024-01-30T13:52:01;24.13;;;11.77;;
20251;SDS011;10284;58.364;15.550;2024-01-30T13:54:27;21.40;;;11.85;;
20251;SDS011;10284;58.364;15.550;2024-01-30T13:56:53;20.35;;;11.48;;
20251;SDS011;10284;58.364;15.550;2024-01-30T13:59:18;23.95;;;12.70;;
20251;SDS011;10284;58.364;15.550;2024-01-30T14:01:48;23.90;;;11.73;;
20251;SDS011;10284;58.364;15.550;2024-01-30T14:04:14;21.83;;;12.93;;